Time;durP1;ratioP1;P1;durP2;ratioP2;P2;SDS_P1;SDS_P2;PMS_P1;PMS_P2;Temp;Humidity;BMP_temperature;BMP_pressure;BME280_temperature;BME280_humidity;BME280_pressure;Samples;Min_cycle;Max_cycle;Signal;HPM_P1;HPM_P2
2022/05/08 00:02:19;;;;;;;18.08;9.65;;;;;;;19.62;41.17;102708.56;5075693;28;20012;-76
2022/05/08 00:04:45;;;;;;;12.77;8.85;;;;;;;19.58;41.21;102716.72;5075628;28;20025;-76
2022/05/08 00:07:11;;;;;;;12.18;7.03;;;;;;;19.64;41.10;102704.31;5075045;28;20082;-88
2022/05/08 00:09:37;;;;;;;11.65;7.85;;;;;;;19.67;41.01;102705.63;5075704;28;20479;-87
2022/05/08 00:12:03;;;;;;;15.98;8.18;;;;;;;19.64;40.88;102704.31;5075573;28;20028;-76
2022/05/08 00:14:28;;;;;;;12.35;8.07;;;;;;;19.56;41.16;102704.28;5075496;28;20055;-75
2022/05/08 00:16:54;;;;;;;10.70;7.05;;;;;;;19.44;40.92;102704.94;5065176;28;20044;-76
2022/05/08 00:19:19;;;;;;;11.95;7.10;;;;;;;19.31;41.20;102700.38;5054287;28;20158;-76
2022/05/08 00:21:45;;;;;;;12.55;7.18;;;;;;;19.08;41.18;102699.69;5055533;28;20028;-86
2022/05/08 00:24:11;;;;;;;15.15;7.05;;;;;;;18.97;41.26;102695.63;5055272;28;20052;-75
2022/05/08 00:26:36;;;;;;;11.07;8.18;;;;;;;18.93;41.15;102687.13;5064531;28;20131;-76
2022/05/08 00:29:02;;;;;;;13.00;7.65;;;;;;;18.92;41.10;102687.44;5075342;28;20414;-76
2022/05/08 00:31:29;;;;;;;12.50;8.07;;;;;;;18.97;40.70;102682.56;5075378;28;20028;-76
2022/05/08 00:33:55;;;;;;;15.48;8.85;;;;;;;18.93;41.09;102684.34;5074970;28;20021;-87
2022/05/08 00:36:20;;;;;;;13.45;8.93;;;;;;;18.96;41.39;102685.63;5066658;28;20025;-76
2022/05/08 00:38:46;;;;;;;15.82;9.73;;;;;;;19.02;41.68;102690.72;5055169;28;20033;-75
2022/05/08 00:41:12;;;;;;;17.63;8.73;;;;;;;19.12;41.43;102684.06;5055136;28;20469;-76
2022/05/08 00:43:40;;;;;;;16.52;9.43;;;;;;;19.19;41.53;102683.56;5055130;28;20021;-76
2022/05/08 00:46:08;;;;;;;21.83;9.38;;;;;;;19.28;41.60;102676.91;5059505;28;20059;-75
2022/05/08 00:48:34;;;;;;;16.45;9.32;;;;;;;19.31;41.53;102678.19;5065435;28;20032;-85
2022/05/08 00:51:03;;;;;;;12.55;8.27;;;;;;;19.27;41.65;102661.41;5054777;28;20057;-88
2022/05/08 00:53:43;;;;;;;13.07;7.80;;;;;;;19.12;41.58;102654.41;5054844;28;20434;-76
2022/05/08 00:56:10;;;;;;;;;;;;;;;18.89;41.41;102665.91;5059908;28;20021;-87
2022/05/08 00:58:38;;;;;;;16.77;9.05;;;;;;;18.88;41.51;102669.81;5074506;28;19913;-75
2022/05/08 01:01:04;;;;;;;13.05;8.68;;;;;;;18.92;41.83;102668.88;5074432;28;20078;-75
2022/05/08 01:03:30;;;;;;;15.38;9.90;;;;;;;18.84;41.91;102681.56;5074617;28;20020;-75
2022/05/08 01:05:57;;;;;;;16.50;9.20;;;;;;;19.03;41.82;102683.22;5073945;28;20047;-75
2022/05/08 01:08:24;;;;;;;16.30;9.38;;;;;;;19.17;41.57;102675.56;5074550;28;20082;-76
2022/05/08 01:10:52;;;;;;;16.52;9.68;;;;;;;19.26;41.55;102683.88;5074409;28;20036;-76
2022/05/08 01:13:18;;;;;;;18.00;9.65;;;;;;;19.27;41.44;102683.59;5074287;28;20032;-86
2022/05/08 01:15:46;;;;;;;14.25;9.00;;;;;;;19.25;41.11;102687.81;5071282;28;20028;-75
2022/05/08 01:18:14;;;;;;;19.02;9.75;;;;;;;19.15;41.60;102683.41;5054244;28;20592;-75
2022/05/08 01:20:44;;;;;;;18.00;10.27;;;;;;;19.15;41.56;102688.94;5054087;28;20033;-78
2022/05/08 01:23:11;;;;;;;14.13;9.32;;;;;;;19.16;41.60;102682.25;5054253;28;20063;-75
2022/05/08 01:25:46;;;;;;;18.63;10.45;;;;;;;19.11;41.60;102680.44;5055327;28;20029;-76
2022/05/08 01:28:13;;;;;;;16.38;10.13;;;;;;;19.09;41.54;102668.88;5074023;28;20491;-75
2022/05/08 01:30:43;;;;;;;17.15;9.95;;;;;;;18.99;41.87;102665.63;5073903;28;20040;-76
2022/05/08 01:33:09;;;;;;;17.23;10.57;;;;;;;18.85;41.84;102672.09;5074078;28;20550;-76
2022/05/08 01:35:36;;;;;;;19.45;10.43;;;;;;;18.88;41.69;102676.19;5073418;28;20056;-76
2022/05/08 01:38:03;;;;;;;19.38;10.27;;;;;;;18.90;41.51;102676.69;5073947;28;20028;-76
2022/05/08 01:40:30;;;;;;;21.58;11.82;;;;;;;18.82;41.86;102674.72;5073858;28;20020;-75
2022/05/08 01:42:56;;;;;;;19.58;11.73;;;;;;;18.76;42.04;102678.78;5073852;28;20055;-88
2022/05/08 01:45:21;;;;;;;13.52;9.38;;;;;;;18.77;41.85;102664.59;5073388;28;20021;-76
2022/05/08 01:50:31;;;;;;;15.60;9.65;;;;;;;18.64;41.96;102659.97;5053942;28;20024;-88
2022/05/08 01:52:57;;;;;;;15.60;9.43;;;;;;;18.62;41.92;102670.56;5053597;28;20021;-88
2022/05/08 01:55:22;;;;;;;13.73;8.95;;;;;;;18.58;41.73;102661.25;5053704;28;20020;-76
2022/05/08 01:57:48;;;;;;;13.55;8.90;;;;;;;18.54;42.01;102657.50;5072319;28;20056;-76
2022/05/08 02:00:14;;;;;;;17.73;9.15;;;;;;;18.76;41.34;102665.75;5073627;28;20077;-76
2022/05/08 02:02:43;;;;;;;16.58;9.77;;;;;;;18.69;41.52;102667.34;5073262;28;20032;-75
2022/05/08 02:05:09;;;;;;;15.05;9.02;;;;;;;18.66;41.41;102663.25;5073474;28;20039;-76
2022/05/08 02:07:35;;;;;;;18.27;10.15;;;;;;;18.61;41.44;102649.53;5072676;28;20035;-75
2022/05/08 02:10:01;;;;;;;11.82;8.07;;;;;;;18.58;41.60;102655.72;5073109;28;20046;-76
2022/05/08 02:12:26;;;;;;;14.50;9.05;;;;;;;18.52;41.57;102663.38;5073153;28;20047;-75
2022/05/08 02:14:52;;;;;;;13.68;8.25;;;;;;;18.51;41.59;102660.91;5073334;28;20039;-76
2022/05/08 02:17:18;;;;;;;13.27;8.93;;;;;;;18.40;41.76;102663.16;5055246;28;20082;-75
2022/05/08 02:19:44;;;;;;;16.92;10.50;;;;;;;18.39;41.54;102661.53;5053135;28;20029;-76
2022/05/08 02:22:10;;;;;;;16.33;8.73;;;;;;;18.39;41.52;102658.75;5051831;28;20391;-75
2022/05/08 02:24:35;;;;;;;15.05;9.32;;;;;;;18.40;41.46;102660.38;5052946;28;20025;-75
2022/05/08 02:27:01;;;;;;;16.63;9.93;;;;;;;18.40;41.62;102652.06;5053007;28;20048;-78
2022/05/08 02:29:27;;;;;;;15.18;10.48;;;;;;;18.39;41.56;102653.22;5053074;28;20049;-75
2022/05/08 02:31:52;;;;;;;16.35;10.02;;;;;;;18.28;41.80;102652.66;5053315;28;20064;-76
2022/05/08 02:34:18;;;;;;;17.92;9.68;;;;;;;18.26;41.78;102654.13;5053235;28;20037;-75
2022/05/08 02:36:44;;;;;;;16.23;10.05;;;;;;;18.22;41.87;102651.19;5065263;28;20028;-76
2022/05/08 02:39:09;;;;;;;16.67;9.48;;;;;;;18.23;41.92;102644.53;5072537;28;20058;-83
2022/05/08 02:41:35;;;;;;;13.32;8.98;;;;;;;18.22;41.68;102639.31;5072556;28;20111;-75
2022/05/08 02:44:01;;;;;;;19.70;9.60;;;;;;;18.25;41.82;102635.91;5063970;28;20032;-75
2022/05/08 02:46:26;;;;;;;13.23;7.95;;;;;;;18.18;41.80;102628.06;5062535;28;20552;-76
2022/05/08 02:48:52;;;;;;;12.90;8.32;;;;;;;18.10;41.59;102637.13;5072988;28;20033;-86
2022/05/08 02:51:18;;;;;;;14.63;8.27;;;;;;;18.07;41.79;102632.25;5072863;28;20027;-87
2022/05/08 02:53:43;;;;;;;14.43;8.18;;;;;;;18.05;41.68;102630.91;5071068;28;20062;-76
2022/05/08 02:58:53;;;;;;;13.40;8.90;;;;;;;17.99;41.79;102636.59;5072639;28;20043;-76
2022/05/08 03:01:18;;;;;;;19.10;9.70;;;;;;;18.08;41.80;102627.53;5072576;28;20032;-80
2022/05/08 03:03:44;;;;;;;13.73;8.70;;;;;;;18.04;41.74;102630.09;5072882;28;20155;-75
2022/05/08 03:06:09;;;;;;;17.67;9.98;;;;;;;18.05;41.77;102634.50;5065324;28;20032;-78
2022/05/08 03:08:35;;;;;;;11.80;8.10;;;;;;;18.05;41.57;102625.38;5052758;28;20479;-76
2022/05/08 03:13:45;;;;;;;14.45;8.23;;;;;;;17.99;41.57;102633.03;5052536;28;20072;-75
2022/05/08 03:16:11;;;;;;;8.07;6.65;;;;;;;17.91;41.84;102626.31;5062598;28;20052;-76
2022/05/08 03:18:41;;;;;;;16.27;7.10;;;;;;;17.87;41.69;102625.31;5072480;28;20031;-75
2022/05/08 03:21:08;;;;;;;15.27;8.38;;;;;;;17.87;41.60;102633.59;5072947;28;20489;-76
2022/05/08 03:23:34;;;;;;;17.35;9.23;;;;;;;17.79;41.80;102628.84;5072308;28;20021;-75
2022/05/08 03:26:01;;;;;;;11.18;7.57;;;;;;;17.71;41.69;102624.06;5070158;28;20023;-76
2022/05/08 03:28:27;;;;;;;12.35;7.93;;;;;;;17.65;41.67;102628.88;5072061;28;20045;-76
2022/05/08 03:30:52;;;;;;;11.80;8.38;;;;;;;17.63;41.65;102627.56;5072481;28;20032;-75
2022/05/08 03:33:18;;;;;;;9.82;7.20;;;;;;;17.70;41.64;102626.03;5071986;28;20021;-75
2022/05/08 03:35:44;;;;;;;10.02;7.13;;;;;;;17.67;41.64;102631.31;5066147;28;20531;-77
2022/05/08 03:38:09;;;;;;;10.13;6.25;;;;;;;17.65;41.47;102628.06;5052285;28;20079;-75
2022/05/08 03:40:36;;;;;;;9.55;6.47;;;;;;;17.62;41.21;102632.28;5052242;28;20029;-75
2022/05/08 03:43:02;;;;;;;15.52;7.82;;;;;;;17.60;41.39;102625.41;5052135;28;20063;-75
2022/05/08 03:45:31;;;;;;;11.85;8.27;;;;;;;17.65;41.29;102623.34;5055594;28;20463;-75
2022/05/08 03:47:59;;;;;;;15.70;7.90;;;;;;;17.66;41.08;102613.91;5072157;28;20024;-75
2022/05/08 03:50:25;;;;;;;8.90;7.25;;;;;;;17.64;41.18;102620.91;5072139;28;20021;-76
2022/05/08 03:52:52;;;;;;;12.95;8.30;;;;;;;17.58;41.21;102611.09;5072409;28;20024;-80
2022/05/08 03:55:17;;;;;;;15.63;8.45;;;;;;;17.58;41.23;102614.69;5072180;28;20017;-75
2022/05/08 03:57:46;;;;;;;12.82;8.07;;;;;;;17.56;41.27;102608.66;5055739;28;20489;-75
2022/05/08 04:00:13;;;;;;;12.93;7.80;;;;;;;17.55;41.17;102607.03;5056013;28;20029;-76
2022/05/08 04:02:39;;;;;;;9.82;6.63;;;;;;;17.48;41.15;102613.00;5055632;28;20020;-81
2022/05/08 04:05:05;;;;;;;10.82;6.20;;;;;;;17.42;41.04;102603.19;5055598;28;20035;-76
2022/05/08 04:07:32;;;;;;;11.73;7.38;;;;;;;17.33;41.24;102601.50;5075117;28;20036;-90
2022/05/08 04:09:58;;;;;;;10.02;7.72;;;;;;;17.34;41.08;102601.19;5075608;28;20024;-75
2022/05/08 04:12:24;;;;;;;13.18;7.43;;;;;;;17.37;41.14;102599.75;5075632;28;20056;-75
2022/05/08 04:14:50;;;;;;;11.30;5.45;;;;;;;17.40;41.09;102593.59;5073856;28;20458;-76
2022/05/08 04:17:16;;;;;;;11.20;5.63;;;;;;;17.31;41.22;102598.25;5055522;28;20040;-76
2022/05/08 04:19:42;;;;;;;12.55;7.28;;;;;;;17.35;40.76;102599.25;5055614;28;20033;-76
2022/05/08 04:24:52;;;;;;;10.70;6.57;;;;;;;17.23;41.21;102588.78;5056808;28;20039;-75
2022/05/08 04:27:17;;;;;;;7.35;5.70;;;;;;;17.20;41.02;102590.19;5072953;28;20053;-76
2022/05/08 04:29:43;;;;;;;10.75;6.57;;;;;;;17.08;41.13;102595.47;5055569;28;20475;-86
2022/05/08 04:32:09;;;;;;;13.23;7.90;;;;;;;17.06;41.10;102589.44;5055227;28;20028;-75
2022/05/08 04:34:34;;;;;;;12.57;7.68;;;;;;;17.11;41.22;102588.50;5055308;28;20094;-75
2022/05/08 04:37:00;;;;;;;15.18;7.82;;;;;;;17.26;41.00;102581.78;5054911;28;20028;-76
2022/05/08 04:39:25;;;;;;;12.07;7.47;;;;;;;17.30;41.01;102591.06;5074801;28;20522;-76
2022/05/08 04:41:51;;;;;;;11.98;7.70;;;;;;;17.35;41.19;102590.97;5074839;28;20063;-86
2022/05/08 04:44:18;;;;;;;13.20;7.38;;;;;;;17.39;41.02;102592.78;5075019;28;20445;-75
2022/05/08 04:46:43;;;;;;;11.20;7.38;;;;;;;17.43;40.92;102588.25;5063441;28;20112;-75
2022/05/08 04:49:10;;;;;;;10.25;6.35;;;;;;;17.42;41.28;102591.34;5055033;28;20488;-76
2022/05/08 04:51:36;;;;;;;12.02;6.80;;;;;;;17.43;41.20;102591.00;5057334;28;20052;-76
2022/05/08 04:54:02;;;;;;;10.90;6.80;;;;;;;17.48;41.10;102598.38;5074716;28;20107;-75
2022/05/08 04:56:27;;;;;;;10.40;6.70;;;;;;;17.46;41.25;102590.41;5074704;28;20028;-75
2022/05/08 04:58:53;;;;;;;10.40;6.68;;;;;;;17.51;41.09;102599.69;5074528;28;20457;-75
2022/05/08 05:01:18;;;;;;;7.22;5.65;;;;;;;17.43;41.27;102596.53;5074818;28;20099;-75
2022/05/08 05:03:44;;;;;;;7.90;6.30;;;;;;;17.44;41.21;102586.31;5074849;28;20108;-76
2022/05/08 05:06:09;;;;;;;11.38;6.28;;;;;;;17.44;41.29;102589.06;5072636;28;20033;-76
2022/05/08 05:08:35;;;;;;;13.93;7.10;;;;;;;17.47;41.23;102591.22;5067877;28;20033;-75
2022/05/08 05:11:01;;;;;;;9.68;6.28;;;;;;;17.42;41.56;102605.97;5054586;28;20498;-88
2022/05/08 05:13:26;;;;;;;10.98;5.63;;;;;;;17.42;41.52;102605.97;5054498;28;20392;-75
2022/05/08 05:15:52;;;;;;;13.60;6.85;;;;;;;17.48;41.46;102609.41;5054214;28;20033;-75
2022/05/08 05:18:18;;;;;;;16.02;7.32;;;;;;;17.62;41.33;102612.13;5054299;28;20502;-75
2022/05/08 05:20:45;;;;;;;10.20;5.50;;;;;;;17.75;41.20;102606.53;5064500;28;20039;-76
2022/05/08 05:23:11;;;;;;;9.30;6.65;;;;;;;17.92;41.09;102610.53;5074127;28;20081;-88
2022/05/08 05:25:37;;;;;;;15.07;8.27;;;;;;;17.93;41.32;102607.44;5074053;28;20029;-75
2022/05/08 05:28:03;;;;;;;18.08;9.98;;;;;;;18.04;41.19;102605.22;5058158;28;20056;-76
2022/05/08 05:30:28;;;;;;;12.18;7.32;;;;;;;18.13;41.63;102608.00;5086323;28;20033;-76
2022/05/08 05:32:54;;;;;;;13.35;8.68;;;;;;;18.15;41.60;102598.28;5054067;28;20025;-76
2022/05/08 05:35:20;;;;;;;15.65;8.20;;;;;;;18.29;41.66;102600.94;5054031;28;20029;-88
2022/05/08 05:37:45;;;;;;;15.63;8.98;;;;;;;18.42;41.56;102610.22;5054123;28;20032;-76
2022/05/08 05:40:11;;;;;;;13.40;7.90;;;;;;;18.51;41.56;102605.53;5053921;28;20028;-75
2022/05/08 05:42:38;;;;;;;11.45;7.63;;;;;;;18.55;41.56;102609.31;5053841;28;20040;-75
2022/05/08 05:45:04;;;;;;;11.05;7.30;;;;;;;18.68;41.49;102607.56;5053837;28;20025;-83
2022/05/08 05:50:14;;;;;;;13.52;7.32;;;;;;;19.01;41.56;102608.75;5053840;28;20391;-74
2022/05/08 05:52:39;;;;;;;13.07;7.70;;;;;;;19.14;41.63;102604.19;5053480;28;20029;-75
2022/05/08 05:55:06;;;;;;;12.48;7.57;;;;;;;19.27;41.57;102602.38;5053809;28;20025;-75
2022/05/08 05:57:36;;;;;;;13.00;8.38;;;;;;;19.45;41.54;102608.72;5053193;28;20037;-79
2022/05/08 06:00:06;;;;;;;12.43;7.57;;;;;;;19.60;41.64;102605.47;5052121;28;20040;-76
2022/05/08 06:02:32;;;;;;;15.52;8.50;;;;;;;19.68;41.67;102607.41;5053459;28;20499;-75
2022/05/08 06:04:57;;;;;;;13.02;7.53;;;;;;;19.75;41.96;102607.72;5053613;28;20021;-76
2022/05/08 06:07:23;;;;;;;16.65;8.73;;;;;;;19.81;41.86;102609.19;5053435;28;20028;-75
2022/05/08 06:09:48;;;;;;;14.60;8.88;;;;;;;20.03;41.68;102610.09;5053982;28;20025;-77
2022/05/08 06:12:14;;;;;;;15.95;8.13;;;;;;;20.22;41.50;102621.59;5053157;28;20063;-79
2022/05/08 06:14:40;;;;;;;16.10;8.77;;;;;;;20.27;41.83;102615.06;5062397;28;20063;-75
2022/05/08 06:17:06;;;;;;;16.83;10.00;;;;;;;20.42;41.67;102620.03;5072597;28;20024;-76
2022/05/08 06:19:32;;;;;;;18.92;9.32;;;;;;;20.54;41.84;102619.34;5073004;28;20112;-76
2022/05/08 06:21:58;;;;;;;16.35;10.23;;;;;;;20.63;41.96;102608.97;5053699;28;20105;-76
2022/05/08 06:24:23;;;;;;;20.83;11.13;;;;;;;20.74;42.10;102616.59;5053024;28;20060;-88
2022/05/08 06:26:49;;;;;;;18.13;11.70;;;;;;;20.86;42.31;102610.31;5053143;28;20081;-76
2022/05/08 06:29:15;;;;;;;23.63;13.02;;;;;;;20.83;42.57;102605.41;5052866;28;20029;-75
2022/05/08 06:31:41;;;;;;;21.13;11.52;;;;;;;21.02;42.53;102611.34;5052757;28;20147;-76
2022/05/08 06:34:08;;;;;;;24.25;12.55;;;;;;;21.17;42.54;102609.91;5053050;28;20063;-75
2022/05/08 06:36:33;;;;;;;23.95;12.57;;;;;;;21.25;42.79;102605.41;5053048;28;20387;-76
2022/05/08 06:38:59;;;;;;;26.90;13.02;;;;;;;21.43;42.54;102590.22;5052954;28;20029;-76
2022/05/08 06:41:26;;;;;;;23.95;11.80;;;;;;;21.46;43.03;102597.06;5052969;28;20025;-75
2022/05/08 06:43:53;;;;;;;23.77;11.88;;;;;;;21.48;43.13;102603.91;5064626;28;20083;-75
2022/05/08 06:46:19;;;;;;;24.85;11.70;;;;;;;21.59;43.16;102593.16;5073046;28;20111;-76
2022/05/08 06:48:47;;;;;;;26.10;12.35;;;;;;;21.66;43.18;102595.38;5072729;28;20024;-76
2022/05/08 06:51:13;;;;;;;22.67;11.85;;;;;;;21.73;43.09;102593.66;5072536;28;20475;-76
2022/05/08 06:53:40;;;;;;;19.75;11.75;;;;;;;21.80;43.14;102598.66;5072921;28;20028;-89
2022/05/08 06:56:05;;;;;;;29.13;13.35;;;;;;;21.76;43.42;102594.94;5072808;28;20102;-75
2022/05/08 07:01:34;;;;;;;21.83;12.07;;;;;;;21.82;43.23;102591.59;5072614;28;20060;-76
2022/05/08 07:01:49;;;;;;;21.55;11.45;;;;;;;21.91;43.22;102599.03;5072291;28;20050;-76
2022/05/08 07:04:10;;;;;;;20.58;11.85;;;;;;;21.88;43.23;102589.41;5072402;28;20086;-76
2022/05/08 07:06:37;;;;;;;21.45;11.15;;;;;;;21.70;43.90;102594.38;5072650;28;20029;-75
2022/05/08 07:09:04;;;;;;;18.40;10.88;;;;;;;21.77;43.93;102593.81;5058397;28;20581;-76
2022/05/08 07:11:30;;;;;;;16.42;9.43;;;;;;;21.71;44.36;102600.72;5052467;28;20032;-76
2022/05/08 07:13:57;;;;;;;24.65;10.80;;;;;;;21.99;43.61;102593.38;5052478;28;20407;-76
2022/05/08 07:16:23;;;;;;;18.83;8.73;;;;;;;22.25;43.40;102597.81;5052392;28;20033;-75
2022/05/08 07:18:49;;;;;;;16.75;6.95;;;;;;;22.37;43.18;102595.84;5052600;28;20534;-75
2022/05/08 07:21:14;;;;;;;19.40;7.47;;;;;;;22.39;42.92;102601.06;5051014;28;20037;-75
2022/05/08 07:23:40;;;;;;;19.10;7.72;;;;;;;22.56;42.53;102600.81;5052541;28;20076;-74
2022/05/08 07:26:06;;;;;;;15.27;7.18;;;;;;;22.57;42.39;102599.63;5053242;28;20028;-81
2022/05/08 07:28:33;;;;;;;19.83;8.07;;;;;;;22.57;42.71;102599.63;5064450;28;20090;-89
2022/05/08 07:30:58;;;;;;;14.27;6.85;;;;;;;22.57;42.66;102605.22;5058204;28;20116;-74
2022/05/08 07:33:24;;;;;;;12.13;6.82;;;;;;;22.63;42.47;102601.03;5056036;28;20579;-74
2022/05/08 07:38:34;;;;;;;16.02;7.55;;;;;;;22.88;41.96;102598.22;5056125;28;20552;-75
2022/05/08 07:41:01;;;;;;;12.02;6.60;;;;;;;22.61;42.58;102603.38;5056078;28;20017;-76
2022/05/08 07:43:26;;;;;;;17.30;7.40;;;;;;;22.70;42.62;102603.22;5068627;28;20021;-75
2022/05/08 07:45:52;;;;;;;14.32;6.55;;;;;;;22.77;42.30;102603.44;5062874;28;20037;-75
2022/05/08 07:48:18;;;;;;;13.70;5.90;;;;;;;22.98;42.18;102595.75;5067604;28;20016;-76
2022/05/08 07:50:45;;;;;;;21.95;7.30;;;;;;;22.93;42.12;102597.97;5066807;28;20036;-74
2022/05/08 07:53:12;;;;;;;10.55;6.30;;;;;;;23.14;41.63;102595.00;5055976;28;20029;-75
2022/05/08 07:55:38;;;;;;;13.60;5.93;;;;;;;23.26;41.46;102592.16;5071626;28;20459;-75
2022/05/08 07:58:04;;;;;;;12.50;6.28;;;;;;;23.37;41.40;102593.28;5075347;28;20048;-75
2022/05/08 08:00:30;;;;;;;12.05;7.38;;;;;;;23.40;41.00;102594.53;5075392;28;20467;-75
2022/05/08 08:02:55;;;;;;;11.10;6.03;;;;;;;23.36;41.43;102588.06;5075881;28;20024;-76
2022/05/08 08:05:21;;;;;;;21.35;6.50;;;;;;;23.53;40.89;102591.34;5076058;28;20029;-75
2022/05/08 08:07:47;;;;;;;13.10;6.57;;;;;;;23.68;40.49;102592.56;5075966;28;20042;-76
2022/05/08 08:10:13;;;;;;;14.07;6.55;;;;;;;23.63;40.86;102598.41;5076098;28;20127;-87
2022/05/08 08:12:39;;;;;;;8.20;4.85;;;;;;;23.39;40.91;102595.72;5075966;28;20474;-82
2022/05/08 08:15:05;;;;;;;10.25;5.43;;;;;;;23.61;40.68;102591.56;5075491;28;20051;-76
2022/05/08 08:17:31;;;;;;;14.90;6.40;;;;;;;23.71;40.56;102586.25;5074758;28;20090;-76
2022/05/08 08:19:57;;;;;;;12.90;5.53;;;;;;;23.80;40.06;102598.06;5074470;28;20068;-89
2022/05/08 08:22:23;;;;;;;16.60;5.07;;;;;;;23.97;40.21;102587.72;5075613;28;20044;-76
2022/05/08 08:24:49;;;;;;;11.25;5.47;;;;;;;24.01;40.06;102583.03;5073821;28;20025;-76
2022/05/08 08:27:16;;;;;;;10.13;5.65;;;;;;;24.00;40.10;102584.19;5074436;28;20403;-74
2022/05/08 08:29:42;;;;;;;13.13;5.43;;;;;;;23.88;40.41;102587.06;5075000;28;20020;-75
2022/05/08 08:32:08;;;;;;;15.07;5.60;;;;;;;24.04;39.92;102582.31;5075044;28;20475;-86
2022/05/08 08:34:34;;;;;;;9.93;4.63;;;;;;;24.15;39.62;102585.38;5073911;28;20054;-74
2022/05/08 08:37:00;;;;;;;12.55;5.30;;;;;;;24.27;39.46;102580.50;5074295;28;20029;-75
2022/05/08 08:39:26;;;;;;;12.68;4.72;;;;;;;24.30;39.57;102584.53;5063362;28;20475;-74
2022/05/08 08:42:08;;;;;;;11.70;4.70;;;;;;;24.15;39.78;102583.38;5053225;28;20040;-75
2022/05/08 08:50:05;;;;;;;11.63;5.57;;;;;;;24.04;39.39;102576.72;5061694;28;20445;-74
2022/05/08 08:52:31;;;;;;;9.95;5.07;;;;;;;24.12;39.36;102578.53;5074232;28;20395;-75
2022/05/08 08:54:58;;;;;;;10.15;5.07;;;;;;;24.12;39.59;102586.09;5059553;28;20040;-74
2022/05/08 08:57:24;;;;;;;11.40;5.25;;;;;;;24.25;39.53;102580.03;5066223;28;20021;-75
2022/05/08 08:59:50;;;;;;;13.05;5.75;;;;;;;24.35;39.41;102582.31;5072339;28;20020;-75
2022/05/08 09:02:17;;;;;;;11.40;4.80;;;;;;;24.53;39.19;102570.72;5069699;28;20035;-81
2022/05/08 09:04:49;;;;;;;11.48;5.00;;;;;;;24.46;38.69;102568.56;5072080;28;20103;-76
2022/05/08 09:07:39;;;;;;;12.50;4.70;;;;;;;24.43;38.75;102569.31;5071985;28;20086;-75
2022/05/08 09:10:27;;;;;;;7.80;4.25;;;;;;;24.43;38.89;102563.72;5068665;28;20031;-77
2022/05/08 09:12:52;;;;;;;11.10;4.43;;;;;;;24.54;38.89;102566.75;5067399;28;20106;-75
2022/05/08 09:15:20;;;;;;;9.27;4.50;;;;;;;24.66;38.51;102563.03;5073344;28;20082;-75
2022/05/08 09:17:48;;;;;;;7.55;3.80;;;;;;;24.77;38.07;102561.25;5073185;28;20069;-75
2022/05/08 09:20:33;;;;;;;11.15;3.65;;;;;;;24.72;37.77;102561.56;5073058;28;20027;-74
2022/05/08 09:23:04;;;;;;;6.80;3.78;;;;;;;24.62;38.16;102563.75;5054072;28;20027;-75
2022/05/08 09:25:57;;;;;;;9.55;4.30;;;;;;;24.53;37.91;102554.78;5053930;28;20029;-75
2022/05/08 09:28:42;;;;;;;9.85;4.32;;;;;;;24.70;37.79;102559.13;5053659;28;20052;-75
2022/05/08 09:31:15;;;;;;;9.88;4.57;;;;;;;24.80;37.92;102552.97;5053911;28;20028;-74
2022/05/08 09:33:43;;;;;;;10.30;4.45;;;;;;;24.83;37.32;102555.03;5053893;28;20459;-74
2022/05/08 09:36:20;;;;;;;11.25;3.92;;;;;;;24.76;37.31;102557.66;5054052;28;20034;-75
2022/05/08 09:38:55;;;;;;;12.10;4.20;;;;;;;24.81;37.32;102564.97;5054038;28;20033;-75
2022/05/08 09:41:29;;;;;;;12.25;5.20;;;;;;;24.75;36.87;102567.22;5059206;28;20032;-75
2022/05/08 09:44:09;;;;;;;12.40;5.80;;;;;;;24.67;37.15;102554.28;5074782;28;20032;-87
2022/05/08 09:46:43;;;;;;;10.38;4.95;;;;;;;24.61;37.93;102559.34;5074271;28;20040;-75
2022/05/08 09:49:11;;;;;;;8.95;4.68;;;;;;;24.62;37.98;102551.75;5074230;28;20085;-86
2022/05/08 09:51:38;;;;;;;9.30;4.95;;;;;;;24.70;37.95;102553.53;5067926;28;20033;-76
2022/05/08 09:54:03;;;;;;;11.65;4.55;;;;;;;24.82;37.71;102536.63;5053477;28;20024;-74
2022/05/08 09:56:30;;;;;;;11.52;5.20;;;;;;;25.08;37.27;102533.19;5088070;28;20033;-77
2022/05/08 09:58:56;;;;;;;9.20;4.93;;;;;;;25.10;37.55;102527.25;5073221;28;20032;-75
2022/05/08 10:01:24;;;;;;;8.95;4.93;;;;;;;25.19;37.48;102522.22;5073252;28;20033;-75
2022/05/08 10:03:51;;;;;;;9.35;4.53;;;;;;;25.27;36.85;102526.75;5073415;28;20467;-75
2022/05/08 10:06:18;;;;;;;10.00;5.80;;;;;;;25.31;37.01;102530.41;5072833;28;20028;-73
2022/05/08 10:08:46;;;;;;;9.02;4.78;;;;;;;25.28;36.88;102522.78;5054267;28;20037;-73
2022/05/08 10:14:07;;;;;;;9.15;4.32;;;;;;;25.52;35.60;102516.03;5053308;28;20502;-75
2022/05/08 10:16:52;;;;;;;14.82;5.30;;;;;;;25.35;35.42;102511.72;5068523;28;20128;-75
2022/05/08 10:19:18;;;;;;;12.43;6.20;;;;;;;25.36;35.23;102502.16;5071513;28;20115;-75
2022/05/08 10:21:56;;;;;;;11.60;5.95;;;;;;;25.43;35.43;102512.66;5072471;28;20116;-82
2022/05/08 10:24:32;;;;;;;10.80;6.85;;;;;;;25.40;35.90;102507.81;5067748;28;20033;-74
2022/05/08 10:27:18;;;;;;;14.98;6.88;;;;;;;25.41;35.88;102518.63;5052459;28;20380;-74
2022/05/08 10:30:06;;;;;;;14.52;7.22;;;;;;;25.46;35.54;102504.31;5052781;28;20112;-74
2022/05/08 10:32:32;;;;;;;13.15;7.03;;;;;;;25.51;35.73;102496.81;5052511;28;20028;-75
2022/05/08 10:35:12;;;;;;;10.55;6.45;;;;;;;25.36;35.94;102502.16;5052668;28;20021;-74
2022/05/08 10:37:51;;;;;;;11.15;6.75;;;;;;;25.38;35.43;102496.19;5055328;28;20115;-75
2022/05/08 10:40:22;;;;;;;10.38;6.57;;;;;;;25.32;36.07;102506.88;5065315;28;20037;-75
2022/05/08 10:42:59;;;;;;;17.10;8.85;;;;;;;25.41;35.85;102501.84;5052764;28;20033;-75
2022/05/08 10:45:34;;;;;;;15.38;7.78;;;;;;;25.20;36.75;102498.66;5054842;28;20025;-75
2022/05/08 10:48:17;;;;;;;13.43;7.15;;;;;;;25.48;35.90;102503.16;5051272;28;20399;-77
2022/05/08 10:50:46;;;;;;;14.05;7.95;;;;;;;25.49;36.02;102496.38;5052367;28;20029;-75
2022/05/08 10:53:22;;;;;;;12.07;8.45;;;;;;;25.45;36.63;102502.72;5052499;28;20059;-75
2022/05/08 10:55:48;;;;;;;17.15;8.40;;;;;;;25.49;36.62;102502.78;5052433;28;20478;-75
2022/05/08 10:58:14;;;;;;;14.30;9.02;;;;;;;25.55;36.63;102504.09;5052268;28;20037;-80
2022/05/08 11:00:39;;;;;;;16.17;9.75;;;;;;;25.45;36.86;102505.50;5052305;28;20434;-75
2022/05/08 11:03:05;;;;;;;18.42;9.85;;;;;;;25.12;37.32;102508.09;5053754;28;20021;-75
2022/05/08 11:05:32;;;;;;;17.17;10.35;;;;;;;25.35;36.88;102500.53;5058998;28;20074;-75
2022/05/08 11:07:59;;;;;;;15.55;8.88;;;;;;;25.54;36.73;102496.84;5059015;28;20487;-76
2022/05/08 11:10:27;;;;;;;13.50;10.25;;;;;;;25.25;36.98;102508.75;5058897;28;20467;-65
2022/05/08 11:13:03;;;;;;;16.58;10.80;;;;;;;25.33;37.13;102490.91;5058885;28;20052;-65
2022/05/08 11:15:30;;;;;;;13.82;10.60;;;;;;;25.37;36.77;102489.78;5058802;28;20029;-65
2022/05/08 11:18:15;;;;;;;17.48;11.65;;;;;;;25.26;37.46;102490.78;5058698;28;20029;-65
2022/05/08 11:20:50;;;;;;;17.85;11.23;;;;;;;25.53;37.39;102488.84;5059117;28;20078;-65
2022/05/08 11:23:18;;;;;;;17.38;11.75;;;;;;;25.27;38.03;102493.19;5058772;28;20025;-65
2022/05/08 11:25:49;;;;;;;22.48;12.25;;;;;;;25.61;37.19;102490.56;5058776;28;20059;-65
2022/05/08 11:28:17;;;;;;;18.90;11.68;;;;;;;25.43;37.50;102485.50;5058576;28;20628;-66
2022/05/08 11:30:46;;;;;;;18.40;12.70;;;;;;;25.49;37.31;102482.38;5058701;28;20033;-76
2022/05/08 11:36:05;;;;;;;18.25;11.18;;;;;;;25.29;37.62;102484.44;5059041;28;20242;-89
2022/05/08 11:38:50;;;;;;;23.10;12.98;;;;;;;25.70;37.37;102486.34;5058797;28;20098;-74
2022/05/08 11:41:18;;;;;;;16.58;11.68;;;;;;;25.79;37.43;102474.94;5058760;28;20025;-74
2022/05/08 11:43:45;;;;;;;15.27;10.85;;;;;;;25.85;37.24;102470.63;5057338;28;20025;-75
2022/05/08 11:46:16;;;;;;;22.80;13.27;;;;;;;25.92;37.21;102473.53;5057523;28;20111;-75
2022/05/08 11:48:43;;;;;;;15.10;11.80;;;;;;;25.67;37.54;102475.91;5058212;28;20028;-78